createdAt,value
2023-04-09T00:01:05.576Z,8.26
2023-04-09T00:03:35.464Z,8.22
2023-04-09T00:06:03.851Z,8.18
2023-04-09T00:08:31.645Z,8.14
2023-04-09T00:11:01.390Z,8.12
2023-04-09T00:13:39.181Z,8.15
2023-04-09T00:16:08.271Z,8.15
2023-04-09T00:18:38.310Z,8.12
2023-04-09T00:21:08.572Z,8.09
2023-04-09T00:23:36.770Z,8.07
2023-04-09T00:26:04.706Z,8.08
2023-04-09T00:28:32.492Z,8.08
2023-04-09T00:31:02.271Z,8.02
2023-04-09T00:33:30.979Z,8.00
2023-04-09T00:35:58.827Z,7.95
2023-04-09T00:38:27.168Z,7.87
2023-04-09T00:40:55.190Z,7.80
2023-04-09T00:43:23.647Z,7.74
2023-04-09T00:45:51.809Z,7.72
2023-04-09T00:48:22.748Z,7.69
2023-04-09T00:50:50.924Z,7.62
2023-04-09T00:53:18.716Z,7.60
2023-04-09T00:55:46.981Z,7.60
2023-04-09T00:58:15.811Z,7.60
2023-04-09T01:00:44.009Z,7.59
2023-04-09T01:03:12.286Z,7.59
2023-04-09T01:05:44.954Z,7.60
2023-04-09T01:08:13.102Z,7.62
2023-04-09T01:10:44.002Z,7.63
2023-04-09T01:13:13.233Z,7.64
2023-04-09T01:15:47.267Z,7.67
2023-04-09T01:18:35.472Z,7.70
2023-04-09T01:21:03.925Z,7.73
2023-04-09T01:23:51.837Z,7.76
2023-04-09T01:26:43.343Z,7.78
2023-04-09T01:29:11.738Z,7.84
2023-04-09T01:31:39.674Z,7.95
2023-04-09T01:34:10.264Z,8.02
2023-04-09T01:36:38.619Z,7.97
2023-04-09T01:39:06.439Z,7.91
2023-04-09T01:41:34.560Z,7.90
2023-04-09T01:44:03.503Z,7.86
2023-04-09T01:46:32.006Z,7.80
2023-04-09T01:49:00.034Z,7.74
2023-04-09T01:51:28.515Z,7.69
2023-04-09T01:53:56.363Z,7.64
2023-04-09T01:56:24.280Z,7.59
2023-04-09T01:58:52.921Z,7.58
2023-04-09T02:01:21.466Z,7.57
2023-04-09T02:03:54.638Z,7.53
2023-04-09T02:06:29.305Z,7.46
2023-04-09T02:08:57.472Z,7.37
2023-04-09T02:11:26.073Z,7.32
2023-04-09T02:13:55.800Z,7.29
2023-04-09T02:16:25.092Z,7.28
2023-04-09T02:18:53.860Z,7.31
2023-04-09T02:21:22.471Z,7.28
2023-04-09T02:23:50.802Z,7.24
2023-04-09T02:26:19.708Z,7.19
2023-04-09T02:28:47.813Z,7.16
2023-04-09T02:31:15.959Z,7.12
2023-04-09T02:33:43.775Z,7.18
2023-04-09T02:36:12.841Z,7.27
2023-04-09T02:38:41.930Z,7.38
2023-04-09T02:41:09.746Z,7.54
2023-04-09T02:43:38.652Z,7.65
2023-04-09T02:46:07.125Z,7.75
2023-04-09T02:48:38.897Z,7.78
2023-04-09T02:51:06.900Z,7.70
2023-04-09T02:53:37.810Z,7.55
2023-04-09T02:56:05.843Z,7.42
2023-04-09T02:58:33.588Z,7.40
2023-04-09T03:01:04.133Z,7.50
2023-04-09T03:03:32.506Z,7.61
2023-04-09T03:06:01.183Z,7.68
2023-04-09T03:08:29.372Z,7.77
2023-04-09T03:10:57.770Z,7.79
2023-04-09T03:13:27.433Z,7.82
2023-04-09T03:15:55.974Z,7.91
2023-04-09T03:18:25.813Z,7.99
2023-04-09T03:20:53.735Z,7.98
2023-04-09T03:23:25.145Z,7.96
2023-04-09T03:26:02.673Z,7.95
2023-04-09T03:28:33.183Z,7.95
2023-04-09T03:31:01.426Z,7.99
2023-04-09T03:33:30.609Z,8.01
2023-04-09T03:35:59.288Z,8.01
2023-04-09T03:38:38.328Z,8.00
2023-04-09T03:41:11.173Z,7.92
2023-04-09T03:43:39.380Z,7.97
2023-04-09T03:46:14.713Z,8.01
2023-04-09T03:48:46.279Z,7.97
2023-04-09T03:51:15.806Z,8.00
2023-04-09T03:53:48.893Z,7.92
2023-04-09T03:56:17.077Z,7.72
2023-04-09T03:58:44.938Z,7.51
2023-04-09T04:01:13.792Z,7.43
2023-04-09T04:03:50.181Z,7.48
2023-04-09T04:06:26.160Z,7.55
2023-04-09T04:09:01.021Z,7.61
2023-04-09T04:11:35.851Z,7.72
2023-04-09T04:14:05.032Z,7.84
2023-04-09T04:16:35.491Z,7.92
2023-04-09T04:19:03.837Z,8.02
2023-04-09T04:21:32.699Z,8.11
2023-04-09T04:24:04.148Z,8.18
2023-04-09T04:26:32.055Z,8.24
2023-04-09T04:29:01.105Z,8.19
2023-04-09T04:31:49.322Z,8.15
2023-04-09T04:34:19.076Z,8.23
2023-04-09T04:36:49.682Z,8.30
2023-04-09T04:39:19.101Z,8.34
2023-04-09T04:41:58.605Z,8.20
2023-04-09T04:44:28.162Z,8.08
2023-04-09T04:47:07.433Z,7.97
2023-04-09T04:49:35.544Z,7.83
2023-04-09T04:52:04.348Z,7.78
2023-04-09T04:54:33.533Z,7.78
2023-04-09T04:57:02.529Z,7.89
2023-04-09T04:59:43.280Z,7.97
2023-04-09T05:02:13.081Z,7.88
2023-04-09T05:04:49.759Z,7.84
2023-04-09T05:07:20.476Z,7.80
2023-04-09T05:09:53.933Z,7.79
2023-04-09T05:12:23.218Z,7.79
2023-04-09T05:14:58.300Z,7.76
2023-04-09T05:17:26.447Z,7.74
2023-04-09T05:19:55.050Z,7.77
2023-04-09T05:22:28.009Z,7.78
2023-04-09T05:24:56.505Z,7.82
2023-04-09T05:27:26.054Z,7.87
2023-04-09T05:29:58.574Z,7.95
2023-04-09T05:32:29.393Z,8.02
2023-04-09T05:34:58.013Z,8.09
2023-04-09T05:37:26.051Z,8.20
2023-04-09T05:39:54.123Z,8.31
2023-04-09T05:42:22.291Z,8.42
2023-04-09T05:45:19.193Z,8.57
2023-04-09T05:47:51.806Z,8.68
2023-04-09T05:50:22.576Z,8.79
2023-04-09T05:52:59.430Z,8.90
2023-04-09T05:55:32.986Z,8.98
2023-04-09T05:58:01.684Z,9.05
2023-04-09T06:00:33.690Z,9.12
2023-04-09T06:03:03.717Z,9.16
2023-04-09T06:05:32.194Z,9.23
2023-04-09T06:08:01.681Z,9.28
2023-04-09T06:10:31.812Z,9.34
2023-04-09T06:12:59.636Z,9.41
2023-04-09T06:15:37.313Z,9.48
2023-04-09T06:18:06.810Z,9.57
2023-04-09T06:20:35.578Z,9.65
2023-04-09T06:23:06.212Z,9.72
2023-04-09T06:25:34.007Z,9.78
2023-04-09T06:28:01.848Z,9.85
2023-04-09T06:30:32.224Z,9.92
2023-04-09T06:33:01.088Z,9.96
2023-04-09T06:35:29.382Z,9.99
2023-04-09T06:37:58.200Z,10.06
2023-04-09T06:40:26.041Z,10.13
2023-04-09T06:42:53.878Z,10.18
2023-04-09T06:45:31.204Z,10.24
2023-04-09T06:47:59.894Z,10.32
2023-04-09T06:50:38.988Z,10.40
2023-04-09T06:53:06.977Z,10.49
2023-04-09T06:55:34.824Z,10.56
2023-04-09T06:58:07.928Z,10.64
2023-04-09T07:00:36.234Z,10.71
2023-04-09T07:03:15.849Z,10.80
2023-04-09T07:05:45.070Z,10.87
2023-04-09T07:08:13.087Z,11.00
2023-04-09T07:10:42.365Z,11.16
2023-04-09T07:13:12.572Z,11.27
2023-04-09T07:15:41.759Z,11.37
2023-04-09T07:18:11.499Z,11.48
2023-04-09T07:20:39.753Z,11.55
2023-04-09T07:23:07.643Z,11.63
2023-04-09T07:25:35.459Z,11.74
2023-04-09T07:28:03.465Z,11.83
2023-04-09T07:30:31.852Z,11.93
2023-04-09T07:33:00.616Z,12.03
2023-04-09T07:35:28.611Z,12.12
2023-04-09T07:37:57.321Z,12.20
2023-04-09T07:40:25.259Z,12.31
2023-04-09T07:42:56.401Z,12.44
2023-04-09T07:45:24.306Z,12.52
2023-04-09T07:47:55.612Z,12.62
2023-04-09T07:50:23.949Z,12.72
2023-04-09T07:52:51.837Z,12.81
2023-04-09T07:55:20.492Z,12.88
2023-04-09T07:57:51.661Z,12.91
2023-04-09T08:00:23.168Z,12.92
2023-04-09T08:02:57.496Z,12.93
2023-04-09T08:05:25.716Z,12.94
2023-04-09T08:07:56.419Z,12.97
2023-04-09T08:10:24.681Z,13.01
2023-04-09T08:12:52.588Z,13.07
2023-04-09T08:15:27.107Z,13.12
2023-04-09T08:17:55.641Z,13.20
2023-04-09T08:20:23.547Z,13.23
2023-04-09T08:22:55.684Z,13.28
2023-04-09T08:25:23.851Z,13.36
2023-04-09T08:27:51.917Z,13.42
2023-04-09T08:30:19.803Z,13.48
2023-04-09T08:32:48.666Z,13.53
2023-04-09T08:35:16.897Z,13.59
2023-04-09T08:37:45.386Z,13.69
2023-04-09T08:40:13.250Z,13.74
2023-04-09T08:42:45.955Z,13.78
2023-04-09T08:45:13.944Z,13.85
2023-04-09T08:47:42.458Z,13.89
2023-04-09T08:50:10.647Z,13.92
2023-04-09T08:52:38.779Z,13.92
2023-04-09T08:55:07.177Z,13.93
2023-04-09T08:57:38.984Z,14.02
2023-04-09T09:00:10.514Z,14.16
2023-04-09T09:02:39.950Z,14.32
2023-04-09T09:05:08.465Z,14.43
2023-04-09T09:07:36.328Z,14.55
2023-04-09T09:10:04.859Z,14.67
2023-04-09T09:12:33.289Z,14.71
2023-04-09T09:15:01.110Z,14.68
2023-04-09T09:17:29.956Z,14.65
2023-04-09T09:19:58.547Z,14.63
2023-04-09T09:22:29.921Z,14.62
2023-04-09T09:24:57.764Z,14.67
2023-04-09T09:27:41.846Z,14.76
2023-04-09T09:30:10.889Z,14.81
2023-04-09T09:32:39.200Z,14.81
2023-04-09T09:35:07.364Z,14.86
2023-04-09T09:37:36.847Z,14.95
2023-04-09T09:40:05.849Z,15.01
2023-04-09T09:42:37.392Z,15.06
2023-04-09T09:45:17.425Z,15.12
2023-04-09T09:47:48.662Z,15.18
2023-04-09T09:50:16.773Z,15.23
2023-04-09T09:52:44.998Z,15.26
2023-04-09T09:55:14.355Z,15.41
2023-04-09T09:57:42.380Z,15.50
2023-04-09T10:00:16.017Z,15.55
2023-04-09T10:02:57.090Z,15.61
2023-04-09T10:05:27.638Z,15.66
2023-04-09T10:07:58.065Z,15.72
2023-04-09T10:10:26.307Z,15.80
2023-04-09T10:12:54.113Z,15.89
2023-04-09T10:15:21.999Z,16.05
2023-04-09T10:17:51.861Z,16.17
2023-04-09T10:20:23.150Z,16.21
2023-04-09T10:22:51.820Z,16.18
2023-04-09T10:25:21.011Z,16.16
2023-04-09T10:28:01.186Z,16.09
2023-04-09T10:30:33.468Z,15.98
2023-04-09T10:33:28.102Z,15.92
2023-04-09T10:36:00.562Z,15.91
2023-04-09T10:38:39.176Z,15.93
2023-04-09T10:41:09.039Z,16.00
2023-04-09T10:43:37.778Z,16.03
2023-04-09T10:46:07.570Z,16.09
2023-04-09T10:48:40.948Z,16.26
2023-04-09T10:51:14.336Z,16.42
2023-04-09T10:53:42.863Z,16.50
2023-04-09T10:56:14.932Z,16.67
2023-04-09T10:58:44.069Z,16.84
2023-04-09T11:01:22.816Z,16.97
2023-04-09T11:04:10.615Z,17.08
2023-04-09T11:06:41.975Z,17.13
2023-04-09T11:09:11.419Z,17.12
2023-04-09T11:11:41.765Z,17.16
2023-04-09T11:14:11.668Z,17.23
2023-04-09T11:16:39.538Z,17.28
2023-04-09T11:19:12.608Z,17.29
2023-04-09T11:21:48.454Z,17.28
2023-04-09T11:24:18.542Z,17.35
2023-04-09T11:26:49.227Z,17.45
2023-04-09T11:29:24.673Z,17.55
2023-04-09T11:31:54.659Z,17.70
2023-04-09T11:34:42.298Z,17.76
2023-04-09T11:37:16.902Z,17.71
2023-04-09T11:39:49.020Z,17.60
2023-04-09T11:42:19.483Z,17.60
2023-04-09T11:44:49.526Z,17.67
2023-04-09T11:47:31.691Z,17.74
2023-04-09T11:50:02.195Z,17.75
2023-04-09T11:52:36.769Z,17.79
2023-04-09T11:55:11.839Z,17.81
2023-04-09T11:57:49.749Z,17.81
2023-04-09T12:00:19.796Z,17.75
2023-04-09T12:03:00.887Z,17.83
2023-04-09T12:05:50.815Z,17.99
2023-04-09T12:08:24.989Z,18.09
2023-04-09T12:11:07.286Z,18.20
2023-04-09T12:13:46.120Z,18.50
2023-04-09T12:16:14.305Z,18.86
2023-04-09T12:19:03.144Z,19.06
2023-04-09T12:21:50.391Z,18.86
2023-04-09T12:24:19.300Z,18.60
2023-04-09T12:26:47.373Z,18.45
2023-04-09T12:29:15.889Z,18.39
2023-04-09T12:31:49.295Z,18.60
2023-04-09T12:34:20.157Z,19.08
2023-04-09T12:37:02.601Z,19.46
2023-04-09T12:39:32.566Z,19.58
2023-04-09T12:42:04.001Z,19.65
2023-04-09T12:44:39.134Z,19.88
2023-04-09T12:47:10.162Z,20.23
2023-04-09T12:49:41.079Z,20.77
2023-04-09T12:52:11.066Z,21.41
2023-04-09T12:54:42.754Z,21.92
2023-04-09T12:57:12.348Z,22.40
2023-04-09T12:59:45.195Z,22.66
2023-04-09T13:02:13.580Z,22.92
2023-04-09T13:04:41.786Z,23.05
2023-04-09T13:07:12.212Z,22.91
2023-04-09T13:09:40.399Z,22.47
2023-04-09T13:12:11.542Z,22.35
2023-04-09T13:14:43.353Z,22.12
2023-04-09T13:17:11.304Z,21.96
2023-04-09T13:19:40.868Z,22.00
2023-04-09T13:22:12.512Z,21.83
2023-04-09T13:24:43.222Z,21.52
2023-04-09T13:27:13.123Z,21.00
2023-04-09T13:29:45.491Z,20.51
2023-04-09T13:32:14.189Z,20.09
2023-04-09T13:34:49.973Z,19.75
2023-04-09T13:37:18.137Z,19.50
2023-04-09T13:39:49.573Z,19.31
2023-04-09T13:42:19.297Z,19.09
2023-04-09T13:44:47.241Z,18.92
2023-04-09T13:47:15.950Z,18.73
2023-04-09T13:49:44.297Z,18.47
2023-04-09T13:52:12.085Z,18.22
2023-04-09T13:54:40.501Z,18.01
2023-04-09T13:57:08.257Z,17.79
2023-04-09T13:59:38.026Z,17.50
2023-04-09T14:02:09.414Z,17.12
2023-04-09T14:04:39.531Z,16.77
2023-04-09T14:07:08.413Z,16.47
2023-04-09T14:09:39.769Z,16.31
2023-04-09T14:12:07.795Z,16.16
2023-04-09T14:14:37.354Z,16.06
2023-04-09T14:17:07.261Z,15.99
2023-04-09T14:19:36.346Z,15.86
2023-04-09T14:22:07.335Z,15.67
2023-04-09T14:24:40.192Z,15.55
2023-04-09T14:27:08.931Z,15.39
2023-04-09T14:29:36.799Z,15.13
2023-04-09T14:32:07.716Z,14.93
2023-04-09T14:34:38.879Z,14.81
2023-04-09T14:37:07.868Z,14.74
2023-04-09T14:39:40.291Z,14.65
2023-04-09T14:42:14.447Z,14.60
2023-04-09T14:45:02.350Z,14.50
2023-04-09T14:47:37.812Z,14.42
2023-04-09T14:50:12.411Z,14.32
2023-04-09T14:52:45.354Z,14.29
2023-04-09T14:55:32.944Z,14.29
2023-04-09T14:58:10.714Z,14.30
2023-04-09T15:00:44.969Z,14.30
2023-04-09T15:03:13.404Z,14.28
2023-04-09T15:05:41.435Z,14.27
2023-04-09T15:08:12.877Z,14.23
2023-04-09T15:10:52.665Z,14.19
2023-04-09T15:13:22.692Z,14.16
2023-04-09T15:15:54.114Z,14.13
2023-04-09T15:18:39.221Z,14.05
2023-04-09T15:21:08.149Z,14.00
2023-04-09T15:23:36.571Z,13.97
2023-04-09T15:26:09.619Z,13.93
2023-04-09T15:28:38.980Z,13.89
2023-04-09T15:31:07.511Z,13.76
2023-04-09T15:33:55.289Z,13.62
2023-04-09T15:36:30.971Z,13.55
2023-04-09T15:38:59.045Z,13.51
2023-04-09T15:41:26.940Z,13.42
2023-04-09T15:44:13.086Z,13.32
2023-04-09T15:46:55.051Z,13.30
2023-04-09T15:49:27.363Z,13.29
2023-04-09T15:51:59.514Z,13.34
2023-04-09T15:54:27.638Z,13.30
2023-04-09T15:57:05.046Z,13.23
2023-04-09T15:59:32.882Z,13.18
2023-04-09T16:02:04.533Z,13.16
2023-04-09T16:04:40.496Z,13.15
2023-04-09T16:07:09.460Z,13.12
2023-04-09T16:09:39.715Z,13.08
2023-04-09T16:12:12.891Z,13.05
2023-04-09T16:14:43.261Z,13.03
2023-04-09T16:17:12.328Z,13.01
2023-04-09T16:19:43.863Z,13.00
2023-04-09T16:22:14.609Z,12.97
2023-04-09T16:24:46.587Z,12.96
2023-04-09T16:27:23.215Z,12.90
2023-04-09T16:29:57.352Z,12.82
2023-04-09T16:32:43.329Z,12.68
2023-04-09T16:35:11.537Z,12.64
2023-04-09T16:37:43.251Z,12.66
2023-04-09T16:40:11.305Z,12.67
2023-04-09T16:42:41.876Z,12.65
2023-04-09T16:45:11.672Z,12.57
2023-04-09T16:48:00.009Z,12.57
2023-04-09T16:50:33.054Z,12.56
2023-04-09T16:53:09.814Z,12.50
2023-04-09T16:55:44.992Z,12.46
2023-04-09T16:58:12.809Z,12.48
2023-04-09T17:00:44.121Z,12.46
2023-04-09T17:03:14.130Z,12.43
2023-04-09T17:05:42.036Z,12.36
2023-04-09T17:08:10.111Z,12.21
2023-04-09T17:10:38.543Z,12.14
2023-04-09T17:13:10.368Z,12.02
2023-04-09T17:15:42.838Z,11.92
2023-04-09T17:18:30.408Z,11.88
2023-04-09T17:21:00.396Z,11.89
2023-04-09T17:23:28.162Z,11.84
2023-04-09T17:25:55.908Z,11.73
2023-04-09T17:28:26.404Z,11.59
2023-04-09T17:30:54.487Z,11.51
2023-04-09T17:33:42.750Z,11.44
2023-04-09T17:36:10.725Z,11.46
2023-04-09T17:38:52.988Z,11.48
2023-04-09T17:41:20.991Z,11.50
2023-04-09T17:43:52.887Z,11.47
2023-04-09T17:46:23.871Z,11.46
2023-04-09T17:48:55.379Z,11.44
2023-04-09T17:51:30.199Z,11.41
2023-04-09T17:54:02.263Z,11.37
2023-04-09T17:56:35.449Z,11.36
2023-04-09T17:59:03.246Z,11.43
2023-04-09T18:01:32.318Z,11.52
2023-04-09T18:04:01.464Z,11.59
2023-04-09T18:06:38.031Z,11.64
2023-04-09T18:09:06.151Z,11.65
2023-04-09T18:11:38.294Z,11.65
2023-04-09T18:14:10.354Z,11.61
2023-04-09T18:16:50.656Z,11.62
2023-04-09T18:19:20.151Z,11.67
2023-04-09T18:21:52.908Z,11.67
2023-04-09T18:24:20.924Z,11.69
2023-04-09T18:26:50.719Z,11.69
2023-04-09T18:29:23.576Z,11.71
2023-04-09T18:31:51.982Z,11.76
2023-04-09T18:34:22.186Z,11.76
2023-04-09T18:36:53.682Z,11.77
2023-04-09T18:39:25.889Z,11.74
2023-04-09T18:41:53.692Z,11.63
2023-04-09T18:44:21.857Z,11.61
2023-04-09T18:46:49.848Z,11.63
2023-04-09T18:49:18.818Z,11.67
2023-04-09T18:51:47.360Z,11.70
2023-04-09T18:54:22.743Z,11.71
2023-04-09T18:56:52.297Z,11.70
2023-04-09T18:59:20.600Z,11.73
2023-04-09T19:01:48.561Z,11.75
2023-04-09T19:04:16.888Z,11.76
2023-04-09T19:06:47.458Z,11.79
2023-04-09T19:09:15.355Z,11.84
2023-04-09T19:11:43.438Z,11.87
2023-04-09T19:14:11.355Z,11.90
2023-04-09T19:16:39.385Z,11.94
2023-04-09T19:19:07.153Z,11.96
2023-04-09T19:21:36.008Z,11.95
2023-04-09T19:24:05.526Z,11.85
2023-04-09T19:26:35.177Z,11.86
2023-04-09T19:29:05.311Z,11.91
2023-04-09T19:31:33.181Z,11.94
2023-04-09T19:34:01.257Z,11.93
2023-04-09T19:36:31.283Z,11.92
2023-04-09T19:38:59.148Z,11.89
2023-04-09T19:41:27.053Z,11.80
2023-04-09T19:43:54.797Z,11.73
2023-04-09T19:46:22.594Z,11.69
2023-04-09T19:48:50.939Z,11.70
2023-04-09T19:51:22.157Z,11.70
2023-04-09T19:53:49.891Z,11.64
2023-04-09T19:56:21.337Z,11.61
2023-04-09T19:58:49.423Z,11.60
2023-04-09T20:01:17.189Z,11.62
2023-04-09T20:03:46.989Z,11.64
2023-04-09T20:06:15.832Z,11.66
2023-04-09T20:08:43.634Z,11.68
2023-04-09T20:11:15.968Z,11.73
2023-04-09T20:13:44.627Z,11.78
2023-04-09T20:16:12.507Z,11.78
2023-04-09T20:18:41.001Z,11.79
2023-04-09T20:21:14.567Z,11.83
2023-04-09T20:23:45.189Z,11.89
2023-04-09T20:26:13.832Z,11.94
2023-04-09T20:28:42.025Z,11.99
2023-04-09T20:31:09.809Z,12.03
2023-04-09T20:33:39.704Z,12.06
2023-04-09T20:36:15.409Z,12.08
2023-04-09T20:38:43.239Z,12.10
2023-04-09T20:41:11.399Z,12.12
2023-04-09T20:43:39.385Z,12.13
2023-04-09T20:46:09.726Z,12.16
2023-04-09T20:48:37.940Z,12.18
2023-04-09T20:51:09.801Z,12.20
2023-04-09T20:53:38.609Z,12.20
2023-04-09T20:56:07.360Z,12.18
2023-04-09T20:58:41.868Z,12.18
2023-04-09T21:01:11.145Z,12.18
2023-04-09T21:03:40.178Z,12.18
2023-04-09T21:06:09.208Z,12.17
2023-04-09T21:08:38.512Z,12.15
2023-04-09T21:11:06.692Z,12.13
2023-04-09T21:13:53.079Z,12.10
2023-04-09T21:16:26.085Z,12.09
2023-04-09T21:18:54.335Z,12.07
2023-04-09T21:21:36.587Z,12.04
2023-04-09T21:24:05.066Z,12.02
2023-04-09T21:26:45.318Z,11.99
2023-04-09T21:29:19.843Z,11.97
2023-04-09T21:31:48.567Z,11.92
2023-04-09T21:34:16.789Z,11.88
2023-04-09T21:36:46.502Z,11.85
2023-04-09T21:39:15.014Z,11.84
2023-04-09T21:41:42.794Z,11.83
2023-04-09T21:44:10.874Z,11.82
2023-04-09T21:46:40.850Z,11.80
2023-04-09T21:49:08.978Z,11.79
2023-04-09T21:51:36.876Z,11.79
2023-04-09T21:54:05.722Z,11.78
2023-04-09T21:56:34.060Z,11.79
2023-04-09T21:59:05.082Z,11.77
2023-04-09T22:01:34.466Z,11.76
2023-04-09T22:04:02.882Z,11.75
2023-04-09T22:06:33.206Z,11.74
2023-04-09T22:09:01.838Z,11.73
2023-04-09T22:11:30.019Z,11.71
2023-04-09T22:13:59.771Z,11.69
2023-04-09T22:16:27.853Z,11.73
2023-04-09T22:18:56.903Z,11.74
2023-04-09T22:21:29.138Z,11.74
2023-04-09T22:23:57.010Z,11.72
2023-04-09T22:26:24.791Z,11.74
2023-04-09T22:28:52.945Z,11.73
2023-04-09T22:31:21.726Z,11.72
2023-04-09T22:33:50.599Z,11.70
2023-04-09T22:36:19.112Z,11.70
2023-04-09T22:38:49.112Z,11.69
2023-04-09T22:41:17.694Z,11.69
2023-04-09T22:43:45.757Z,11.68
2023-04-09T22:46:14.312Z,11.67
2023-04-09T22:48:44.849Z,11.65
2023-04-09T22:51:13.823Z,11.65
2023-04-09T22:53:41.787Z,11.65
2023-04-09T22:56:10.220Z,11.65
2023-04-09T22:58:41.224Z,11.64
2023-04-09T23:01:09.449Z,11.64
2023-04-09T23:03:37.326Z,11.60
2023-04-09T23:06:05.745Z,11.61
2023-04-09T23:08:33.654Z,11.62
2023-04-09T23:11:01.718Z,11.65
2023-04-09T23:13:32.471Z,11.68
2023-04-09T23:16:00.398Z,11.70
2023-04-09T23:18:28.208Z,11.74
2023-04-09T23:20:56.101Z,11.76
2023-04-09T23:23:23.859Z,11.76
2023-04-09T23:25:52.499Z,11.76
2023-04-09T23:28:20.985Z,11.79
2023-04-09T23:30:48.723Z,11.83
2023-04-09T23:33:17.346Z,11.86
2023-04-09T23:35:46.864Z,11.89
2023-04-09T23:38:19.382Z,11.91
2023-04-09T23:40:48.872Z,11.92
2023-04-09T23:43:16.925Z,11.94
2023-04-09T23:45:46.535Z,11.95
2023-04-09T23:48:15.789Z,11.97
2023-04-09T23:50:44.734Z,11.98
2023-04-09T23:53:12.815Z,11.99
2023-04-09T23:55:41.745Z,12.00
2023-04-09T23:58:11.869Z,12.02
